Time;durP1;ratioP1;P1;durP2;ratioP2;P2;SDS_P1;SDS_P2;PMS_P1;PMS_P2;Temp;Humidity;BMP_temperature;BMP_pressure;BME280_temperature;BME280_humidity;BME280_pressure;Samples;Min_cycle;Max_cycle;Signal;HPM_P1;HPM_P2
2024/03/28 00:02:22;;;;;;;7.60;4.15;;;;;;;11.92;52.55;98684.44;4957933;28;96907;-83
2024/03/28 00:04:47;;;;;;;8.48;4.00;;;;;;;11.91;52.75;98687.09;4944863;28;96814;-83
2024/03/28 00:07:12;;;;;;;9.40;5.13;;;;;;;11.87;52.51;98683.69;4954407;28;98043;-83
2024/03/28 00:09:38;;;;;;;9.52;4.57;;;;;;;11.84;52.67;98685.53;4940212;28;100320;-83
2024/03/28 00:12:05;;;;;;;7.80;4.50;;;;;;;11.81;52.76;98668.16;4958322;28;96860;-83
2024/03/28 00:14:30;;;;;;;8.63;4.88;;;;;;;11.79;52.70;98672.56;4935861;28;96810;-84
2024/03/28 00:16:56;;;;;;;10.38;4.60;;;;;;;11.79;52.57;98659.53;4941655;28;100351;-83
2024/03/28 00:19:21;;;;;;;8.40;3.95;;;;;;;11.78;52.96;98655.19;4954259;28;97373;-83
2024/03/28 00:21:46;;;;;;;6.78;4.43;;;;;;;11.77;53.02;98656.94;4956416;28;96785;-83
2024/03/28 00:24:12;;;;;;;6.20;4.43;;;;;;;11.77;52.88;98648.25;4955404;28;96922;-84
2024/03/28 00:26:38;;;;;;;9.30;4.10;;;;;;;11.77;52.89;98643.03;4950027;28;100270;-84
2024/03/28 00:29:03;;;;;;;7.78;4.15;;;;;;;11.77;52.98;98646.50;4946667;28;100684;-84
2024/03/28 00:31:28;;;;;;;7.35;4.40;;;;;;;11.78;52.85;98640.38;4939102;28;96728;-83
2024/03/28 00:33:54;;;;;;;8.00;4.45;;;;;;;11.79;53.09;98633.41;4956472;28;97002;-84
2024/03/28 00:36:20;;;;;;;8.18;4.35;;;;;;;11.80;53.09;98630.75;4950198;28;97937;-83
2024/03/28 00:38:45;;;;;;;7.65;4.03;;;;;;;11.81;53.10;98636.81;4950679;28;100281;-83
2024/03/28 00:41:10;;;;;;;8.35;4.43;;;;;;;11.80;53.03;98622.91;4954042;28;96842;-84
2024/03/28 00:43:36;;;;;;;7.20;4.20;;;;;;;11.82;52.99;98615.03;4953080;28;96774;-84
2024/03/28 00:46:02;;;;;;;6.97;4.18;;;;;;;11.82;53.06;98609.81;4950196;28;100701;-84
2024/03/28 00:48:27;;;;;;;6.75;4.05;;;;;;;11.80;53.12;98611.63;4955412;28;100778;-83
2024/03/28 00:51:00;;;;;;;7.18;3.88;;;;;;;11.78;52.99;98595.09;4959192;28;96883;-83
2024/03/28 00:53:26;;;;;;;8.98;4.55;;;;;;;11.77;52.96;98594.25;4955104;28;96970;-83
2024/03/28 00:55:52;;;;;;;9.02;4.05;;;;;;;11.77;52.84;98598.63;4953387;28;97645;-83
2024/03/28 00:58:18;;;;;;;9.00;4.25;;;;;;;11.77;52.97;98582.97;4963412;28;100623;-83
2024/03/28 01:00:45;;;;;;;9.13;4.43;;;;;;;11.77;53.04;98573.38;4953720;28;96975;-84
2024/03/28 01:03:11;;;;;;;7.10;4.25;;;;;;;11.77;53.11;98578.59;4954223;28;96928;-83
2024/03/28 01:05:37;;;;;;;7.70;3.83;;;;;;;11.78;53.13;98569.00;4940922;28;100289;-84
2024/03/28 01:08:02;;;;;;;7.38;4.13;;;;;;;11.77;52.89;98569.91;4956161;28;100312;-83
2024/03/28 01:10:28;;;;;;;6.95;4.32;;;;;;;11.77;52.79;98577.75;4942726;28;96883;-83
2024/03/28 01:12:53;;;;;;;8.15;4.05;;;;;;;11.75;52.91;98567.34;4950736;28;96857;-83
2024/03/28 01:15:19;;;;;;;6.80;3.53;;;;;;;11.73;52.77;98574.38;4941546;28;100178;-83
2024/03/28 01:17:45;;;;;;;6.03;3.75;;;;;;;11.71;52.81;98570.06;4952363;28;97922;-84
2024/03/28 01:20:11;;;;;;;6.13;3.78;;;;;;;11.69;52.77;98567.50;4940148;28;96847;-84
2024/03/28 01:22:40;;;;;;;7.47;4.10;;;;;;;11.69;52.66;98553.59;4938542;28;96932;-83
2024/03/28 01:25:06;;;;;;;;;;;;;;;11.66;52.60;98558.88;4958050;28;100688;-83
2024/03/28 01:27:32;;;;;;;6.68;3.55;;;;;;;11.67;52.59;98555.41;4948328;28;101493;-83
2024/03/28 01:29:57;;;;;;;5.18;3.53;;;;;;;11.65;52.70;98551.97;4954490;28;96822;-83
2024/03/28 01:32:22;;;;;;;7.68;3.88;;;;;;;11.62;52.72;98553.78;4961023;28;97829;-83
2024/03/28 01:34:48;;;;;;;7.28;3.53;;;;;;;11.60;52.71;98552.97;4953147;28;100501;-83
2024/03/28 01:37:13;;;;;;;9.43;3.95;;;;;;;11.59;52.78;98553.84;4957318;28;100269;-83
2024/03/28 01:39:39;;;;;;;8.57;3.67;;;;;;;11.59;52.64;98548.63;4943401;28;96955;-83
2024/03/28 01:42:04;;;;;;;5.93;3.50;;;;;;;11.57;53.05;98531.31;4956251;28;97089;-86
2024/03/28 01:44:30;;;;;;;6.40;3.95;;;;;;;11.56;52.65;98530.44;4952762;28;97675;-86
2024/03/28 01:46:57;;;;;;;6.38;3.38;;;;;;;11.53;52.69;98527.94;4936792;28;104574;-86
2024/03/28 01:49:25;;;;;;;6.53;3.65;;;;;;;11.53;52.64;98532.28;4941576;28;96849;-86
2024/03/28 01:51:51;;;;;;;7.60;4.03;;;;;;;11.52;52.69;98527.97;4960186;28;96871;-86
2024/03/28 01:54:17;;;;;;;5.75;3.55;;;;;;;11.50;52.78;98520.19;4938536;28;101114;-86
2024/03/28 01:56:44;;;;;;;9.13;3.67;;;;;;;11.51;52.77;98524.50;4961353;28;97821;-86
2024/03/28 01:59:10;;;;;;;8.82;3.90;;;;;;;11.50;52.83;98520.19;4934942;28;96793;-86
2024/03/28 02:01:40;;;;;;;6.95;3.38;;;;;;;11.49;52.75;98508.03;4950401;28;96821;-86
2024/03/28 02:04:09;;;;;;;6.35;3.90;;;;;;;11.48;52.67;98503.72;4951506;28;101312;-86
2024/03/28 02:06:34;;;;;;;5.63;3.33;;;;;;;11.50;52.74;98501.06;4957623;28;97633;-86
2024/03/28 02:09:02;;;;;;;9.23;3.78;;;;;;;11.48;52.50;98506.31;4952361;28;96794;-86
2024/03/28 02:11:28;;;;;;;7.35;3.72;;;;;;;11.48;52.56;98501.09;4942119;28;96944;-86
2024/03/28 02:13:54;;;;;;;6.75;3.25;;;;;;;11.48;52.44;98505.44;4947207;28;100286;-86
2024/03/28 02:16:19;;;;;;;6.03;3.13;;;;;;;11.47;52.58;98503.75;4956472;28;100735;-86
2024/03/28 02:18:45;;;;;;;7.45;3.83;;;;;;;11.46;52.62;98502.91;4957098;28;96825;-86
2024/03/28 02:21:10;;;;;;;6.10;3.53;;;;;;;11.46;52.65;98508.13;4956700;28;96951;-86
2024/03/28 02:23:36;;;;;;;5.35;3.03;;;;;;;11.45;52.30;98511.63;4951607;28;100446;-86
2024/03/28 02:26:03;;;;;;;6.90;3.08;;;;;;;11.45;52.53;98508.16;4958292;28;100368;-86
2024/03/28 02:28:34;;;;;;;6.68;3.22;;;;;;;11.41;52.48;98503.03;4954506;28;96792;-86
2024/03/28 02:31:00;;;;;;;7.78;3.03;;;;;;;11.42;52.38;98511.69;4953913;28;96821;-86
2024/03/28 02:33:25;;;;;;;5.10;3.42;;;;;;;11.40;52.44;98511.75;4961672;28;97734;-86
2024/03/28 02:35:50;;;;;;;5.80;3.50;;;;;;;11.38;52.29;98503.09;4955088;28;100436;-86
2024/03/28 02:38:16;;;;;;;5.43;3.28;;;;;;;11.37;52.35;98511.84;4958565;28;96824;-86
2024/03/28 02:40:41;;;;;;;6.97;2.83;;;;;;;11.36;52.48;98504.06;4959764;28;96877;-86
2024/03/28 02:43:07;;;;;;;7.53;3.38;;;;;;;11.34;52.24;98508.47;4941028;28;102933;-86
2024/03/28 02:45:32;;;;;;;4.93;2.95;;;;;;;11.32;52.38;98510.25;4936931;28;100473;-86
2024/03/28 02:47:57;;;;;;;4.75;2.92;;;;;;;11.31;52.25;98495.50;4943250;28;96805;-86
2024/03/28 02:50:23;;;;;;;7.90;3.38;;;;;;;11.31;52.26;98503.31;4943299;28;96957;-86
2024/03/28 02:52:48;;;;;;;5.47;3.20;;;;;;;11.30;52.35;98506.81;4952523;28;97981;-86
2024/03/28 02:55:14;;;;;;;6.00;2.72;;;;;;;11.30;52.30;98506.81;4955797;28;100839;-86
2024/03/28 02:57:39;;;;;;;5.40;3.20;;;;;;;11.30;52.37;98509.44;4972750;28;96793;-86
2024/03/28 03:00:05;;;;;;;5.07;3.13;;;;;;;11.30;52.39;98499.00;4941147;28;97010;-86
2024/03/28 03:02:30;;;;;;;7.03;3.13;;;;;;;11.30;52.28;98512.03;4952401;28;101737;-86
2024/03/28 03:04:56;;;;;;;6.85;3.08;;;;;;;11.30;52.44;98499.00;4959793;28;97435;-86
2024/03/28 03:07:21;;;;;;;5.63;3.05;;;;;;;11.30;52.17;98504.22;4952314;28;96795;-85
2024/03/28 03:09:46;;;;;;;6.00;2.83;;;;;;;11.32;52.28;98494.59;4945957;28;96808;-86
2024/03/28 03:12:12;;;;;;;4.53;2.80;;;;;;;11.32;52.17;98486.75;4938652;28;113679;-86
2024/03/28 03:14:37;;;;;;;4.85;3.15;;;;;;;11.31;51.85;98482.44;4953142;28;97246;-86
2024/03/28 03:17:03;;;;;;;5.50;3.10;;;;;;;11.31;52.12;98475.47;4956967;28;96873;-86
2024/03/28 03:19:28;;;;;;;5.45;3.15;;;;;;;11.31;52.07;98470.25;4953396;28;97039;-86
2024/03/28 03:21:54;;;;;;;4.75;2.63;;;;;;;11.32;52.31;98458.03;4941598;28;100391;-86
2024/03/28 03:24:19;;;;;;;4.90;2.67;;;;;;;11.33;52.11;98450.19;4954208;28;100265;-87
2024/03/28 03:26:49;;;;;;;4.68;2.65;;;;;;;11.33;52.10;98447.56;4943859;28;96881;-86
2024/03/28 03:34:50;;;;;;;4.10;2.63;;;;;;;11.34;52.06;98415.38;4960124;28;100480;-87
2024/03/28 03:37:21;;;;;;;4.22;2.67;;;;;;;11.35;52.21;98418.81;4953227;28;96846;-86
2024/03/28 03:39:52;;;;;;;4.88;2.53;;;;;;;11.36;51.84;98417.94;4940721;28;96901;-87
2024/03/28 03:42:17;;;;;;;5.78;3.20;;;;;;;11.36;52.19;98404.88;4952529;28;100858;-87
2024/03/28 03:44:43;;;;;;;4.55;2.70;;;;;;;11.36;51.98;98390.06;4952387;28;97637;-87
2024/03/28 03:47:08;;;;;;;4.32;2.38;;;;;;;11.37;52.00;98383.97;4959232;28;96836;-87
2024/03/28 03:49:34;;;;;;;5.20;2.65;;;;;;;11.36;52.07;98384.00;4937710;28;96793;-87
2024/03/28 03:51:59;;;;;;;4.85;2.75;;;;;;;11.36;52.12;98377.03;4954819;28;101396;-86
2024/03/28 03:54:24;;;;;;;4.72;2.65;;;;;;;11.36;52.12;98373.56;4952819;28;100384;-86
2024/03/28 03:56:50;;;;;;;6.97;2.63;;;;;;;11.36;52.20;98366.56;4958126;28;96888;-87
2024/03/28 03:59:16;;;;;;;4.85;2.38;;;;;;;11.38;52.05;98354.34;4955268;28;96733;-87
2024/03/28 04:01:41;;;;;;;4.18;2.55;;;;;;;11.40;52.20;98362.13;4953019;28;97639;-87
2024/03/28 04:04:07;;;;;;;4.32;2.50;;;;;;;11.41;52.18;98367.28;4941537;28;100220;-86
2024/03/28 04:06:32;;;;;;;5.13;2.45;;;;;;;11.42;52.07;98355.94;4954531;28;96961;-87
2024/03/28 04:08:58;;;;;;;3.95;2.40;;;;;;;11.43;52.12;98360.28;4943000;28;96881;-87
2024/03/28 04:11:23;;;;;;;4.88;2.50;;;;;;;11.45;51.98;98369.81;4952704;28;100495;-87
2024/03/28 04:13:49;;;;;;;5.43;2.45;;;;;;;11.46;52.12;98366.28;4937424;28;100117;-86
2024/03/28 04:16:14;;;;;;;5.53;2.38;;;;;;;11.48;52.03;98361.88;4951737;28;96902;-86
2024/03/28 04:18:39;;;;;;;5.22;2.72;;;;;;;11.49;51.98;98366.22;4943607;28;96918;-86
2024/03/28 04:21:05;;;;;;;4.68;2.40;;;;;;;11.51;52.07;98359.19;4959158;28;97955;-87
2024/03/28 04:23:30;;;;;;;4.50;2.65;;;;;;;11.51;51.96;98378.28;4957069;28;97585;-87
2024/03/28 04:25:57;;;;;;;4.72;2.63;;;;;;;11.52;51.79;98377.41;4943031;28;96906;-87
2024/03/28 04:28:23;;;;;;;4.28;3.03;;;;;;;11.54;51.91;98378.22;4937116;28;96886;-87
2024/03/28 04:30:50;;;;;;;5.35;2.67;;;;;;;11.54;51.85;98362.53;4957557;28;101153;-87
2024/03/28 04:33:16;;;;;;;4.07;2.33;;;;;;;11.57;51.95;98359.00;4954775;28;97533;-87
2024/03/28 04:35:43;;;;;;;6.25;2.72;;;;;;;11.58;51.93;98358.94;4954652;28;96921;-87
2024/03/28 04:38:10;;;;;;;4.05;2.35;;;;;;;11.58;51.76;98353.72;4939225;28;96929;-86
2024/03/28 04:40:36;;;;;;;3.70;2.13;;;;;;;11.61;51.77;98352.78;4947724;28;101119;-86
2024/03/28 04:43:01;;;;;;;4.43;2.22;;;;;;;11.60;51.88;98346.72;4942588;28;100136;-87
2024/03/28 04:45:27;;;;;;;4.47;2.42;;;;;;;11.59;51.65;98334.53;4955090;28;96877;-86
2024/03/28 04:47:52;;;;;;;4.30;2.30;;;;;;;11.62;51.54;98338.81;4967091;28;97867;-86
2024/03/28 04:50:19;;;;;;;4.25;2.70;;;;;;;11.61;51.64;98331.88;4955972;28;100535;-87
2024/03/28 04:52:45;;;;;;;3.30;2.33;;;;;;;11.61;51.68;98332.72;4945291;28;100629;-86
2024/03/28 04:55:10;;;;;;;6.93;2.70;;;;;;;11.60;51.57;98327.56;4951413;28;96805;-86
2024/03/28 04:57:36;;;;;;;5.32;2.38;;;;;;;11.61;51.58;98326.66;4934099;28;96979;-87
2024/03/28 05:00:06;;;;;;;4.03;2.33;;;;;;;11.61;51.53;98324.91;4959372;28;100691;-86
2024/03/28 05:02:32;;;;;;;3.35;2.10;;;;;;;11.62;51.67;98310.06;4944606;28;100232;-86
2024/03/28 05:04:57;;;;;;;3.85;2.20;;;;;;;11.64;51.79;98310.91;4938128;28;96906;-87
2024/03/28 05:07:23;;;;;;;4.00;2.45;;;;;;;11.64;51.70;98305.69;4955926;28;96799;-87
2024/03/28 05:09:49;;;;;;;4.13;2.22;;;;;;;11.63;51.86;98303.97;4951337;28;100290;-87
2024/03/28 05:12:15;;;;;;;4.18;2.15;;;;;;;11.61;51.57;98311.84;4941554;28;100026;-87
2024/03/28 05:14:40;;;;;;;5.85;2.70;;;;;;;11.62;51.79;98313.56;4961405;28;96995;-86
2024/03/28 05:17:07;;;;;;;4.28;2.38;;;;;;;11.63;51.61;98309.19;4957511;28;97107;-87
2024/03/28 05:19:33;;;;;;;4.68;2.50;;;;;;;11.64;51.52;98300.47;4955798;28;101067;-86
2024/03/28 05:21:58;;;;;;;4.07;2.20;;;;;;;11.64;51.60;98308.31;4953400;28;100612;-87
2024/03/28 05:24:24;;;;;;;3.22;1.98;;;;;;;11.63;51.66;98296.97;4960023;28;96785;-87
2024/03/28 05:26:50;;;;;;;4.30;2.15;;;;;;;11.65;51.74;98301.31;4939143;28;96896;-87
2024/03/28 05:29:16;;;;;;;5.10;2.50;;;;;;;11.65;51.57;98301.31;4952201;28;100389;-87
2024/03/28 05:31:41;;;;;;;4.68;2.42;;;;;;;11.66;51.76;98306.47;4948492;28;97416;-86
2024/03/28 05:34:07;;;;;;;5.18;2.72;;;;;;;11.67;51.74;98305.56;4953474;28;96865;-86
2024/03/28 05:36:33;;;;;;;6.82;2.67;;;;;;;11.68;51.85;98301.22;4932423;28;96802;-87
2024/03/28 05:38:59;;;;;;;4.10;2.40;;;;;;;11.70;51.92;98284.59;4948594;28;98039;-87
2024/03/28 05:41:27;;;;;;;6.47;2.47;;;;;;;11.72;51.94;98289.75;4954263;28;100142;-87
2024/03/28 05:43:52;;;;;;;4.25;2.65;;;;;;;11.73;51.71;98299.28;4940840;28;96888;-87
2024/03/28 05:46:17;;;;;;;5.15;2.42;;;;;;;11.74;51.82;98296.63;4946624;28;96860;-87
2024/03/28 05:48:43;;;;;;;6.28;2.45;;;;;;;11.76;51.83;98302.69;4955222;28;97987;-87
2024/03/28 05:51:09;;;;;;;6.68;2.53;;;;;;;11.77;51.79;98293.06;4951939;28;97827;-89
2024/03/28 05:53:34;;;;;;;5.10;2.70;;;;;;;11.78;51.72;98286.94;4940939;28;96954;-87
2024/03/28 05:55:59;;;;;;;5.38;3.00;;;;;;;11.77;51.56;98306.13;4955952;28;96895;-84
2024/03/28 05:58:25;;;;;;;4.85;2.75;;;;;;;11.77;51.68;98319.19;4941718;28;100211;-85
2024/03/28 06:00:50;;;;;;;5.85;3.13;;;;;;;11.77;51.79;98324.41;4939109;28;100641;-85
2024/03/28 06:03:15;;;;;;;6.07;2.83;;;;;;;11.76;51.92;98320.09;4951690;28;96830;-85
2024/03/28 06:05:41;;;;;;;5.55;2.97;;;;;;;11.75;51.74;98321.00;4930799;28;97149;-84
2024/03/28 06:08:06;;;;;;;5.70;3.22;;;;;;;11.74;51.73;98332.34;4962301;28;99908;-84
2024/03/28 06:10:32;;;;;;;5.63;3.17;;;;;;;11.71;51.60;98333.31;4944588;28;100279;-85
2024/03/28 06:12:57;;;;;;;6.57;3.10;;;;;;;11.68;51.86;98328.19;4960665;28;98093;-82
2024/03/28 06:15:23;;;;;;;5.88;3.10;;;;;;;11.66;51.90;98332.59;4940724;28;96890;-84
2024/03/28 06:17:48;;;;;;;6.15;3.15;;;;;;;11.63;51.88;98330.91;4942388;28;100460;-83
2024/03/28 06:20:14;;;;;;;5.70;3.22;;;;;;;11.61;51.81;98331.88;4946153;28;100534;-83
2024/03/28 06:22:39;;;;;;;5.47;2.67;;;;;;;11.59;51.97;98326.72;4942096;28;96909;-83
2024/03/28 06:25:08;;;;;;;5.05;3.03;;;;;;;11.58;52.56;98330.22;4961415;28;96938;-83
2024/03/28 06:27:33;;;;;;;4.97;2.90;;;;;;;11.67;52.74;98331.69;4942863;28;99866;-83
2024/03/28 06:29:59;;;;;;;5.82;2.97;;;;;;;11.80;53.43;98333.00;4961424;28;100256;-84
2024/03/28 06:32:25;;;;;;;6.22;3.35;;;;;;;12.02;53.72;98340.16;4957018;28;96805;-84
2024/03/28 06:34:58;;;;;;;6.38;3.60;;;;;;;12.19;53.04;98334.34;4940973;28;96799;-84
2024/03/28 06:37:24;;;;;;;6.78;3.80;;;;;;;12.28;52.30;98331.44;4965355;28;100431;-84
2024/03/28 06:39:50;;;;;;;5.90;3.05;;;;;;;12.29;51.98;98335.75;4964677;28;100382;-84
2024/03/28 06:42:16;;;;;;;8.65;3.67;;;;;;;12.29;52.02;98338.38;4963748;28;96897;-85
2024/03/28 06:44:47;;;;;;;7.57;3.15;;;;;;;12.35;52.19;98332.06;4959717;28;96913;-84
2024/03/28 06:47:12;;;;;;;7.60;3.47;;;;;;;12.39;51.83;98325.84;4944545;28;100443;-84
2024/03/28 06:49:39;;;;;;;6.50;3.35;;;;;;;12.41;51.61;98313.56;4939328;28;100619;-85
2024/03/28 06:52:05;;;;;;;5.55;3.38;;;;;;;12.41;51.53;98315.34;4949758;28;96798;-85
2024/03/28 06:54:31;;;;;;;7.75;3.70;;;;;;;12.38;51.38;98306.66;4962289;28;96906;-85
2024/03/28 06:56:56;;;;;;;7.43;3.95;;;;;;;12.35;51.28;98312.03;4957360;28;100269;-85
2024/03/28 06:59:22;;;;;;;5.85;3.75;;;;;;;12.33;51.29;98311.19;4959686;28;100106;-85
2024/03/28 07:01:47;;;;;;;6.35;3.63;;;;;;;12.33;51.51;98312.97;4959143;28;96856;-85
2024/03/28 07:04:13;;;;;;;5.72;3.63;;;;;;;12.32;51.55;98309.50;4940789;28;96923;-85
2024/03/28 07:06:38;;;;;;;5.70;3.63;;;;;;;12.31;51.46;98307.78;4956739;28;97929;-84
2024/03/28 07:09:04;;;;;;;7.63;3.80;;;;;;;12.32;51.36;98299.06;4954266;28;97477;-85
2024/03/28 07:11:29;;;;;;;5.65;3.55;;;;;;;12.31;51.22;98307.78;4945927;28;96861;-85
2024/03/28 07:13:55;;;;;;;6.65;3.45;;;;;;;12.31;51.44;98309.56;4948252;28;96792;-84
2024/03/28 07:16:20;;;;;;;6.05;3.38;;;;;;;12.29;51.40;98309.59;4959104;28;100297;-84
2024/03/28 07:18:46;;;;;;;7.03;4.20;;;;;;;12.28;51.61;98309.66;4955922;28;100749;-85
2024/03/28 07:21:12;;;;;;;6.25;3.58;;;;;;;12.27;51.51;98305.34;4956764;28;96733;-85
2024/03/28 07:23:40;;;;;;;5.80;3.30;;;;;;;12.29;51.57;98306.16;4957741;28;96895;-84
2024/03/28 07:26:09;;;;;;;6.25;4.00;;;;;;;12.31;51.53;98310.41;4946572;28;99632;-85
2024/03/28 07:28:35;;;;;;;6.40;3.92;;;;;;;12.32;51.63;98314.75;4954396;28;97745;-85
2024/03/28 07:31:01;;;;;;;6.20;3.83;;;;;;;12.35;51.73;98319.00;4963067;28;96948;-85
2024/03/28 07:33:26;;;;;;;6.57;3.60;;;;;;;12.37;51.77;98319.78;4959547;28;96870;-85
2024/03/28 07:35:52;;;;;;;7.85;3.72;;;;;;;12.36;51.66;98318.09;4960159;28;100379;-85
2024/03/28 07:38:17;;;;;;;6.68;3.53;;;;;;;12.35;51.44;98319.88;4956044;28;97603;-85
2024/03/28 07:40:47;;;;;;;7.20;3.90;;;;;;;12.33;51.65;98319.03;4956951;28;96825;-85
2024/03/28 07:43:13;;;;;;;6.68;3.53;;;;;;;12.31;51.84;98327.84;4956633;28;96845;-84
2024/03/28 07:45:43;;;;;;;5.10;3.13;;;;;;;12.29;51.78;98322.69;4956781;28;98060;-84
2024/03/28 07:48:08;;;;;;;;;;;;;;;12.23;51.76;98328.13;4955883;28;100115;-85
2024/03/28 07:50:34;;;;;;;5.97;3.50;;;;;;;12.22;51.67;98330.78;4956360;28;97081;-85
2024/03/28 07:53:00;;;;;;;6.95;4.00;;;;;;;12.16;51.92;98329.25;4946165;28;96839;-85
2024/03/28 07:55:25;;;;;;;6.35;3.53;;;;;;;12.12;52.31;98333.72;4941173;28;100559;-84
2024/03/28 07:57:51;;;;;;;6.30;3.67;;;;;;;12.10;52.50;98330.31;4963081;28;100713;-85
2024/03/28 08:00:17;;;;;;;7.97;3.60;;;;;;;12.06;52.51;98333.06;4946617;28;96860;-85
2024/03/28 08:02:45;;;;;;;7.53;3.85;;;;;;;12.03;52.62;98331.41;4960913;28;96896;-85
2024/03/28 08:05:15;;;;;;;7.25;3.83;;;;;;;12.00;52.78;98332.38;4956502;28;97917;-85
2024/03/28 08:07:41;;;;;;;8.00;3.85;;;;;;;11.98;53.11;98336.81;4942123;28;101932;-85
2024/03/28 08:10:09;;;;;;;5.93;3.63;;;;;;;11.97;53.02;98342.06;4959742;28;96950;-85
2024/03/28 08:12:35;;;;;;;7.15;3.47;;;;;;;11.94;53.00;98345.66;4936246;28;96891;-85
2024/03/28 08:15:02;;;;;;;8.30;3.65;;;;;;;11.91;53.26;98355.34;4936103;28;100742;-85
2024/03/28 08:17:30;;;;;;;5.80;3.10;;;;;;;11.86;53.46;98357.22;4940663;28;100712;-86
2024/03/28 08:19:55;;;;;;;3.53;1.95;;;;;;;11.81;53.55;98360.81;4954504;28;96976;-87
2024/03/28 08:22:21;;;;;;;2.70;1.63;;;;;;;11.72;53.46;98363.72;4940911;28;96991;-86
2024/03/28 08:24:47;;;;;;;1.98;1.20;;;;;;;11.63;53.49;98367.47;4938606;28;100481;-86
2024/03/28 08:27:12;;;;;;;1.98;1.10;;;;;;;11.56;53.57;98358.13;4959437;28;97411;-86
2024/03/28 08:29:38;;;;;;;2.75;1.10;;;;;;;11.50;53.83;98371.38;4954396;28;96758;-86
2024/03/28 08:32:04;;;;;;;2.72;1.55;;;;;;;11.46;53.92;98366.28;4947496;28;96970;-87
2024/03/28 08:34:29;;;;;;;3.72;1.13;;;;;;;11.40;54.04;98365.56;4946374;28;100050;-87
2024/03/28 08:36:54;;;;;;;2.60;1.23;;;;;;;11.34;54.26;98367.53;4956946;28;100366;-85
2024/03/28 08:39:24;;;;;;;2.13;1.23;;;;;;;11.30;54.40;98368.50;4957547;28;96944;-86
2024/03/28 08:41:56;;;;;;;2.08;0.98;;;;;;;11.24;54.59;98362.56;4956526;28;96900;-86
2024/03/28 08:44:22;;;;;;;2.10;0.93;;;;;;;11.22;54.83;98366.97;4948210;28;100892;-86
2024/03/28 08:46:47;;;;;;;1.45;0.80;;;;;;;11.19;54.72;98366.22;4944402;28;100707;-86
2024/03/28 08:49:14;;;;;;;1.60;0.93;;;;;;;11.18;55.03;98367.13;4953805;28;96664;-86
2024/03/28 08:51:39;;;;;;;2.75;1.23;;;;;;;11.17;55.20;98370.63;4976718;28;97048;-86
2024/03/28 08:54:05;;;;;;;3.17;1.08;;;;;;;11.20;55.26;98375.78;4954552;28;97742;-86
2024/03/28 08:56:35;;;;;;;1.67;0.90;;;;;;;11.22;55.63;98374.81;4954225;28;100723;-87
2024/03/28 08:59:01;;;;;;;;;;;;;;;11.24;55.15;98375.63;4956459;28;96906;-86
2024/03/28 09:01:27;;;;;;;2.72;1.10;;;;;;;11.30;55.26;98384.16;4955050;28;96897;-86
2024/03/28 09:03:52;;;;;;;3.40;1.33;;;;;;;11.30;55.68;98378.94;4940789;28;100675;-86
2024/03/28 09:06:19;;;;;;;2.00;1.02;;;;;;;11.31;55.67;98373.69;4958644;28;97432;-87
2024/03/28 09:08:45;;;;;;;1.85;1.30;;;;;;;11.34;55.74;98378.81;4957213;28;96783;-87
2024/03/28 09:11:12;;;;;;;1.58;1.02;;;;;;;11.36;55.75;98378.78;4934797;28;97188;-87
2024/03/28 09:13:38;;;;;;;2.97;1.42;;;;;;;11.36;55.81;98379.63;4954880;28;97830;-87
2024/03/28 09:16:06;;;;;;;2.10;1.15;;;;;;;11.36;55.97;98379.63;4950376;28;100698;-85
2024/03/28 09:18:32;;;;;;;2.42;1.05;;;;;;;11.35;55.94;98380.50;4960176;28;96773;-86
2024/03/28 09:21:00;;;;;;;2.45;0.90;;;;;;;11.35;56.21;98379.66;4948010;28;96862;-86
2024/03/28 09:23:25;;;;;;;2.50;1.40;;;;;;;11.38;56.07;98390.03;4957045;28;100766;-86
2024/03/28 09:25:51;;;;;;;2.60;1.20;;;;;;;11.41;56.45;98390.78;4950136;28;99841;-86
2024/03/28 09:28:18;;;;;;;2.55;1.10;;;;;;;11.45;56.50;98393.31;4961675;28;96841;-86
2024/03/28 09:30:43;;;;;;;2.92;1.65;;;;;;;11.47;56.48;98407.16;4963377;28;96955;-86
2024/03/28 09:33:10;;;;;;;2.42;1.13;;;;;;;11.47;56.70;98405.41;4955821;28;100655;-86
2024/03/28 09:35:35;;;;;;;3.78;1.50;;;;;;;11.49;56.70;98403.59;4945309;28;100568;-86
2024/03/28 09:38:01;;;;;;;6.75;1.50;;;;;;;11.53;56.77;98406.97;4963147;28;96807;-86
2024/03/28 09:40:30;;;;;;;3.00;1.42;;;;;;;11.54;56.83;98409.53;4963207;28;96817;-86
2024/03/28 09:42:57;;;;;;;3.15;1.70;;;;;;;11.53;56.68;98410.47;4959450;28;100306;-85
2024/03/28 09:45:27;;;;;;;4.13;2.03;;;;;;;11.49;56.61;98415.81;4946835;28;99881;-86
2024/03/28 09:47:55;;;;;;;4.00;2.35;;;;;;;11.45;56.73;98427.25;4960812;28;96876;-86
2024/03/28 09:50:23;;;;;;;3.47;1.92;;;;;;;11.42;57.14;98433.41;4955337;28;96993;-85
2024/03/28 09:52:50;;;;;;;5.22;2.22;;;;;;;11.40;57.08;98425.59;4943353;28;100567;-86
2024/03/28 09:55:16;;;;;;;3.10;2.05;;;;;;;11.42;57.34;98436.84;4960522;28;100569;-85
2024/03/28 09:57:42;;;;;;;6.32;2.70;;;;;;;11.42;57.40;98436.84;4956190;28;96796;-86
2024/03/28 10:00:11;;;;;;;4.05;2.28;;;;;;;11.41;57.46;98434.31;4963499;28;96938;-86
2024/03/28 10:02:50;;;;;;;5.43;2.38;;;;;;;11.37;57.60;98444.00;4975184;28;100238;-86
2024/03/28 10:05:15;;;;;;;4.97;2.85;;;;;;;11.35;57.87;98447.53;4958801;28;98220;-86
2024/03/28 10:07:41;;;;;;;6.68;3.00;;;;;;;11.34;57.93;98446.69;4962913;28;96780;-86
2024/03/28 10:10:12;;;;;;;6.32;3.03;;;;;;;11.36;58.09;98447.50;4941311;28;96752;-86
2024/03/28 10:12:38;;;;;;;5.80;2.80;;;;;;;11.37;58.05;98456.16;4956291;28;97717;-85
2024/03/28 10:15:05;;;;;;;5.28;2.72;;;;;;;11.37;58.33;98456.16;4941764;28;100276;-85
2024/03/28 10:17:31;;;;;;;6.10;2.97;;;;;;;11.38;58.54;98466.56;4946055;28;97158;-85
2024/03/28 10:20:01;;;;;;;5.43;2.90;;;;;;;11.41;58.84;98471.69;4960134;28;96949;-85
2024/03/28 10:22:29;;;;;;;4.57;3.22;;;;;;;11.45;58.76;98469.84;4957655;28;100938;-86
2024/03/28 10:24:55;;;;;;;4.90;2.60;;;;;;;11.48;59.09;98477.63;4955060;28;100222;-86
2024/03/28 10:27:21;;;;;;;4.28;2.95;;;;;;;11.54;58.95;98484.41;4944739;28;96683;-85
2024/03/28 10:29:51;;;;;;;5.07;3.33;;;;;;;11.57;59.20;98492.16;4957273;28;96820;-86
2024/03/28 10:32:17;;;;;;;5.47;3.17;;;;;;;11.62;59.12;98498.06;4952519;28;97706;-86
2024/03/28 10:34:47;;;;;;;5.25;3.45;;;;;;;11.66;59.11;98506.66;4961147;28;100060;-86
2024/03/28 10:37:17;;;;;;;6.15;3.72;;;;;;;11.68;59.16;98510.97;4954573;28;96748;-85
2024/03/28 10:39:43;;;;;;;5.07;3.67;;;;;;;11.70;58.90;98521.38;4957592;28;96964;-85
2024/03/28 10:42:09;;;;;;;6.18;3.67;;;;;;;11.73;59.26;98521.25;4957028;28;100418;-85
2024/03/28 10:44:34;;;;;;;5.68;3.63;;;;;;;11.76;59.29;98527.28;4942632;28;100294;-85
2024/03/28 10:47:03;;;;;;;13.32;3.80;;;;;;;11.82;59.33;98528.84;4954558;28;96775;-85
2024/03/28 10:49:49;;;;;;;6.85;3.45;;;;;;;11.90;59.55;98534.72;4955148;28;96904;-85
2024/03/28 10:52:31;;;;;;;6.68;3.83;;;;;;;12.00;59.74;98536.16;4950407;28;100527;-86
2024/03/28 10:55:04;;;;;;;6.60;3.38;;;;;;;12.09;59.61;98537.63;4943119;28;100821;-85
2024/03/28 10:57:32;;;;;;;5.63;3.47;;;;;;;12.15;59.57;98532.22;4956814;28;96981;-85
2024/03/28 10:59:59;;;;;;;6.15;3.47;;;;;;;12.24;59.68;98541.53;4941763;28;97043;-85
2024/03/28 11:02:27;;;;;;;7.93;3.25;;;;;;;12.33;59.62;98543.00;4955837;28;100581;-85
2024/03/28 11:04:54;;;;;;;6.38;3.55;;;;;;;12.42;59.40;98545.31;4956736;28;97740;-85
2024/03/28 11:07:21;;;;;;;8.57;3.90;;;;;;;12.50;59.62;98548.56;4942642;28;96854;-86
2024/03/28 11:09:49;;;;;;;7.82;3.70;;;;;;;12.61;59.64;98556.06;4959072;28;96942;-85
2024/03/28 11:12:15;;;;;;;6.47;3.30;;;;;;;12.69;59.51;98563.63;4955472;28;97936;-85
2024/03/28 11:14:53;;;;;;;8.25;4.05;;;;;;;12.73;59.38;98568.72;4957726;28;97826;-85
2024/03/28 11:17:20;;;;;;;7.97;4.10;;;;;;;12.87;60.07;98559.56;4952504;28;97023;-85
2024/03/28 11:19:45;;;;;;;9.38;2.95;;;;;;;13.05;60.13;98568.59;4941045;28;96894;-85
2024/03/28 11:22:11;;;;;;;10.15;3.10;;;;;;;13.24;59.79;98569.63;4945146;28;100613;-85
2024/03/28 11:24:37;;;;;;;8.88;2.63;;;;;;;13.36;58.78;98560.53;4950713;28;100404;-85
2024/03/28 11:27:03;;;;;;;7.18;2.67;;;;;;;13.44;58.62;98578.59;4936202;28;96963;-85
2024/03/28 11:29:30;;;;;;;8.48;2.67;;;;;;;13.54;58.38;98584.38;4953379;28;96813;-85
2024/03/28 11:31:57;;;;;;;6.80;2.30;;;;;;;13.63;58.28;98584.88;4955581;28;97742;-85
2024/03/28 11:34:27;;;;;;;9.40;1.83;;;;;;;13.74;57.96;98591.50;4960529;28;97849;-85